createdAt,value
2022-11-28T00:00:15.595Z,89.72
2022-11-28T00:02:17.246Z,89.79
2022-11-28T00:06:20.271Z,89.35
2022-11-28T00:08:21.911Z,89.91
2022-11-28T00:10:23.435Z,90.1
2022-11-28T00:12:25.404Z,90.67
2022-11-28T00:14:26.667Z,90.76
2022-11-28T00:16:28.193Z,90.9
2022-11-28T00:18:29.273Z,90.84
2022-11-28T00:20:31.124Z,90.96
2022-11-28T00:22:32.917Z,90.95
2022-11-28T00:24:34.129Z,90.92
2022-11-28T00:26:35.878Z,90.97
2022-11-28T00:28:37.791Z,91.06
2022-11-28T00:30:39.546Z,91.05
2022-11-28T00:32:41.685Z,90.75
2022-11-28T00:34:43.776Z,89.93
2022-11-28T00:38:46.331Z,89.79
2022-11-28T00:40:47.649Z,90.13
2022-11-28T00:42:48.675Z,90.18
2022-11-28T00:44:49.878Z,90.28
2022-11-28T00:48:52.315Z,89.78
2022-11-28T00:50:53.565Z,89.42
2022-11-28T00:52:55.484Z,89.82
2022-11-28T00:54:56.862Z,89.99
2022-11-28T00:56:58.878Z,89.59
2022-11-28T00:59:00.247Z,89.31
2022-11-28T01:01:01.813Z,89.3
2022-11-28T01:03:03.189Z,89.2
2022-11-28T01:05:05.083Z,89.48
2022-11-28T01:07:06.196Z,89.65
2022-11-28T01:09:07.605Z,89.64
2022-11-28T01:11:08.721Z,89.64
2022-11-28T01:13:09.720Z,89.76
2022-11-28T01:15:11.218Z,90.08
2022-11-28T01:17:13.077Z,90.29
2022-11-28T01:19:14.634Z,90.61
2022-11-28T01:21:15.846Z,90.63
2022-11-28T01:23:17.664Z,90.7
2022-11-28T01:25:19.368Z,90.85
2022-11-28T01:27:21.040Z,90.37
2022-11-28T01:31:23.711Z,91.55
2022-11-28T01:33:24.766Z,91.89
2022-11-28T01:37:27.579Z,91.87
2022-11-28T01:39:29.021Z,91.81
2022-11-28T01:41:30.511Z,92.01
2022-11-28T01:43:31.746Z,92.26
2022-11-28T01:47:34.691Z,93.01
2022-11-28T01:49:36.332Z,93.41
2022-11-28T01:51:37.455Z,93.59
2022-11-28T01:53:39.443Z,93.53
2022-11-28T01:55:41.164Z,93.53
2022-11-28T01:57:43.064Z,93.19
2022-11-28T01:59:44.632Z,92.14
2022-11-28T02:01:46.286Z,91.54
2022-11-28T02:03:48.018Z,91.28
2022-11-28T02:05:49.563Z,91.07
2022-11-28T02:07:50.676Z,90.57
2022-11-28T02:09:52.313Z,90.75
2022-11-28T02:11:54.154Z,90.74
2022-11-28T02:13:56.119Z,90.56
2022-11-28T02:15:57.270Z,90.71
2022-11-28T02:19:59.892Z,91
2022-11-28T02:22:01.662Z,90.86
2022-11-28T02:24:03.033Z,90.75
2022-11-28T02:26:04.274Z,90.78
2022-11-28T02:30:07.308Z,91.25
2022-11-28T02:32:09.097Z,91.52
2022-11-28T02:34:10.360Z,91.29
2022-11-28T02:36:11.889Z,91.29
2022-11-28T02:38:13.319Z,91.4
2022-11-28T02:40:14.409Z,91.29
2022-11-28T02:42:15.911Z,91.3
2022-11-28T02:44:17.537Z,91.65
2022-11-28T02:46:18.796Z,91.63
2022-11-28T02:48:20.386Z,91.66
2022-11-28T02:50:22.169Z,91.86
2022-11-28T02:52:23.670Z,91.47
2022-11-28T02:54:25.010Z,91.41
2022-11-28T02:56:26.869Z,91.4
2022-11-28T02:58:28.637Z,91.22
2022-11-28T03:00:29.924Z,91.3
2022-11-28T03:02:31.202Z,91.42
2022-11-28T03:04:32.987Z,91.13
2022-11-28T03:06:34.564Z,90.94
2022-11-28T03:08:36.411Z,91.13
2022-11-28T03:12:39.174Z,92.05
2022-11-28T03:14:41.082Z,92.01
2022-11-28T03:16:42.513Z,92
2022-11-28T03:18:43.992Z,91.88
2022-11-28T03:20:45.333Z,91.8
2022-11-28T03:22:46.929Z,91.68
2022-11-28T03:24:48.816Z,91.44
2022-11-28T03:26:49.985Z,91.33
2022-11-28T03:28:50.988Z,91.28
2022-11-28T03:30:52.305Z,91.39
2022-11-28T03:32:53.911Z,91.26
2022-11-28T03:34:55.249Z,91.23
2022-11-28T03:36:57.146Z,91.29
2022-11-28T03:38:58.577Z,91.2
2022-11-28T03:41:00.348Z,91.15
2022-11-28T03:43:02.250Z,91.29
2022-11-28T03:45:03.925Z,91.2
2022-11-28T03:47:05.142Z,91.17
2022-11-28T03:49:06.780Z,91.24
2022-11-28T03:51:08.265Z,91.14
2022-11-28T03:55:10.603Z,91.09
2022-11-28T03:57:12.529Z,91.13
2022-11-28T03:59:14.522Z,91.34
2022-11-28T04:01:16.295Z,91.36
2022-11-28T04:03:17.319Z,91.32
2022-11-28T04:05:18.832Z,91.19
2022-11-28T04:07:20.287Z,91.27
2022-11-28T04:09:21.987Z,91.18
2022-11-28T04:11:23.615Z,91.27
2022-11-28T04:13:25.111Z,91.25
2022-11-28T04:15:26.446Z,91.22
2022-11-28T04:17:28.115Z,91.61
2022-11-28T04:19:29.662Z,91.85
2022-11-28T04:21:31.436Z,91.95
2022-11-28T04:23:32.736Z,92.64
2022-11-28T04:27:36.514Z,92.98
2022-11-28T04:29:38.373Z,93.07
2022-11-28T04:31:39.776Z,93.2
2022-11-28T04:33:40.980Z,93.26
2022-11-28T04:37:44.414Z,93.16
2022-11-28T04:39:45.956Z,93.28
2022-11-28T04:41:47.494Z,93.48
2022-11-28T04:43:49.476Z,93.73
2022-11-28T04:45:51.326Z,93.96
2022-11-28T04:47:52.447Z,93.98
2022-11-28T04:49:53.677Z,93.95
2022-11-28T04:51:55.242Z,93.89
2022-11-28T04:53:56.461Z,93.83
2022-11-28T04:55:58.117Z,93.86
2022-11-28T04:57:59.822Z,93.87
2022-11-28T05:00:00.902Z,93.91
2022-11-28T05:02:02.909Z,93.9
2022-11-28T05:04:04.256Z,93.57
2022-11-28T05:06:05.305Z,93.13
2022-11-28T05:10:07.956Z,93.02
2022-11-28T05:12:09.139Z,93.2
2022-11-28T05:14:10.941Z,93.47
2022-11-28T05:16:12.401Z,93.65
2022-11-28T05:20:15.765Z,93.87
2022-11-28T05:22:16.970Z,93.89
2022-11-28T05:24:18.197Z,93.9
2022-11-28T05:26:19.506Z,94.11
2022-11-28T05:28:21.399Z,94.14
2022-11-28T05:30:23.025Z,94.14
2022-11-28T05:32:24.248Z,94.39
2022-11-28T05:34:25.888Z,94.2
2022-11-28T05:36:27.869Z,94.33
2022-11-28T05:38:29.686Z,94.41
2022-11-28T05:40:31.093Z,94.37
2022-11-28T05:42:32.537Z,94.6
2022-11-28T05:44:34.153Z,94.57
2022-11-28T05:46:36.088Z,94.6
2022-11-28T05:48:37.205Z,94.72
2022-11-28T05:52:40.494Z,94.67
2022-11-28T05:54:41.918Z,94.58
2022-11-28T05:56:42.972Z,94.57
2022-11-28T05:58:44.091Z,94.6
2022-11-28T06:00:45.323Z,94.7
2022-11-28T06:02:46.456Z,94.72
2022-11-28T06:04:48.469Z,94.89
2022-11-28T06:08:58.935Z,94.85
2022-11-28T06:10:52.849Z,94.96
2022-11-28T06:12:54.447Z,95.06
2022-11-28T06:14:56.010Z,95.21
2022-11-28T06:18:59.214Z,95.31
2022-11-28T06:21:00.700Z,95.27
2022-11-28T06:23:02.346Z,95.21
2022-11-28T06:25:04.062Z,95.23
2022-11-28T06:27:05.572Z,95.27
2022-11-28T06:29:07.217Z,95.26
2022-11-28T06:29:51.114Z,95.26
2022-11-28T06:31:52.654Z,95.32
2022-11-28T06:33:53.910Z,95.3
2022-11-28T06:35:54.926Z,95.31
2022-11-28T06:37:56.101Z,95.5
2022-11-28T06:39:57.461Z,95.46
2022-11-28T06:41:59.192Z,95.41
2022-11-28T06:46:02.447Z,95.59
2022-11-28T06:48:03.949Z,95.58
2022-11-28T06:50:05.214Z,95.54
2022-11-28T06:52:06.969Z,95.51
2022-11-28T06:54:08.701Z,95.6
2022-11-28T06:56:10.430Z,95.57
2022-11-28T06:58:11.726Z,95.49
2022-11-28T07:00:13.114Z,95.5
2022-11-28T07:02:15.190Z,95.6
2022-11-28T07:04:16.473Z,95.67
2022-11-28T07:06:18.206Z,95.68
2022-11-28T07:08:19.670Z,95.71
2022-11-28T07:10:21.037Z,95.71
2022-11-28T07:12:22.689Z,95.71
2022-11-28T07:14:23.926Z,95.72
2022-11-28T07:18:26.184Z,95.72
2022-11-28T07:20:27.246Z,95.67
2022-11-28T07:22:29.219Z,95.68
2022-11-28T07:24:30.374Z,95.74
2022-11-28T07:28:33.356Z,95.74
2022-11-28T07:30:35.198Z,95.79
2022-11-28T07:32:37.185Z,95.59
2022-11-28T07:34:38.723Z,95.54
2022-11-28T07:36:40.435Z,95.55
2022-11-28T07:38:42.288Z,95.48
2022-11-28T07:40:43.627Z,95.5
2022-11-28T07:42:44.686Z,95.51
2022-11-28T07:44:45.787Z,95.51
2022-11-28T07:46:47.860Z,95.64
2022-11-28T07:48:49.275Z,95.65
2022-11-28T07:50:50.541Z,95.66
2022-11-28T07:52:52.371Z,95.53
2022-11-28T07:54:53.403Z,95.55
2022-11-28T07:57:11.555Z,95.56
2022-11-28T08:00:58.024Z,95.42
2022-11-28T08:02:59.481Z,95.52
2022-11-28T08:05:00.709Z,95.72
2022-11-28T08:07:01.846Z,95.74
2022-11-28T08:11:04.327Z,95.87
2022-11-28T08:13:05.513Z,95.67
2022-11-28T08:17:08.865Z,95.63
2022-11-28T08:19:09.912Z,95.55
2022-11-28T08:21:11.173Z,95.59
2022-11-28T08:23:12.886Z,95.59
2022-11-28T08:25:14.012Z,95.51
2022-11-28T08:27:15.916Z,95.48
2022-11-28T08:29:17.595Z,95.45
2022-11-28T08:31:19.251Z,95.45
2022-11-28T08:33:20.885Z,95.35
2022-11-28T08:35:22.177Z,95.24
2022-11-28T08:37:23.795Z,95.19
2022-11-28T08:39:25.752Z,95.12
2022-11-28T08:41:26.875Z,95
2022-11-28T08:43:28.810Z,94.84
2022-11-28T08:45:30.806Z,94.81
2022-11-28T08:47:32.022Z,94.73
2022-11-28T08:49:33.438Z,94.72
2022-11-28T08:51:34.588Z,94.71
2022-11-28T08:53:35.630Z,94.69
2022-11-28T08:55:40.644Z,94.56
2022-11-28T08:59:40.439Z,94.17
2022-11-28T09:01:41.813Z,94.1
2022-11-28T09:03:43.104Z,94.17
2022-11-28T09:05:44.435Z,94.15
2022-11-28T09:09:48.410Z,93.78
2022-11-28T09:11:49.603Z,94.26
2022-11-28T09:13:50.713Z,94.28
2022-11-28T09:15:53.693Z,94.22
2022-11-28T09:17:53.107Z,94.47
2022-11-28T09:19:54.827Z,94.48
2022-11-28T09:21:57.808Z,94.13
2022-11-28T09:23:58.264Z,94.05
2022-11-28T09:26:00.004Z,94.1
2022-11-28T09:28:01.076Z,93.91
2022-11-28T09:30:02.700Z,93.81
2022-11-28T09:32:03.786Z,93.71
2022-11-28T09:34:04.765Z,93.34
2022-11-28T09:36:05.869Z,93.3
2022-11-28T09:38:07.213Z,93.39
2022-11-28T09:40:14.100Z,93.17
2022-11-28T09:42:10.104Z,92.95
2022-11-28T09:44:11.219Z,92.99
2022-11-28T09:46:12.726Z,93
2022-11-28T09:48:14.506Z,92.86
2022-11-28T09:52:17.388Z,92.5
2022-11-28T09:54:18.372Z,92.28
2022-11-28T09:56:19.456Z,91.94
2022-11-28T09:58:20.744Z,92.24
2022-11-28T10:00:22.085Z,92.17
2022-11-28T10:02:23.977Z,92.14
2022-11-28T10:04:25.455Z,91.69
2022-11-28T10:06:27.353Z,91.52
2022-11-28T10:08:28.451Z,91.47
2022-11-28T10:10:29.546Z,91.53
2022-11-28T10:12:30.884Z,91.82
2022-11-28T10:14:32.038Z,91.67
2022-11-28T10:16:33.355Z,91.48
2022-11-28T10:18:34.640Z,91.36
2022-11-28T10:20:35.639Z,90.93
2022-11-28T10:24:38.404Z,90.69
2022-11-28T10:26:39.906Z,90.75
2022-11-28T10:28:41.063Z,91
2022-11-28T10:30:43.064Z,90.86
2022-11-28T10:34:45.740Z,90.75
2022-11-28T10:36:47.166Z,90.39
2022-11-28T10:40:50.359Z,90.35
2022-11-28T10:42:51.826Z,90.37
2022-11-28T10:44:53.694Z,90.21
2022-11-28T10:46:55.602Z,90.57
2022-11-28T10:48:56.812Z,90.13
2022-11-28T10:50:58.734Z,89.5
2022-11-28T10:52:59.808Z,89.61
2022-11-28T10:55:01.004Z,90.09
2022-11-28T10:57:02.024Z,90.08
2022-11-28T10:59:03.899Z,89.72
2022-11-28T11:01:05.541Z,89.8
2022-11-28T11:03:06.680Z,89.7
2022-11-28T11:05:08.229Z,89.44
2022-11-28T11:07:12.735Z,89.03
2022-11-28T11:09:11.340Z,89.19
2022-11-28T11:11:12.930Z,89.1
2022-11-28T11:13:14.132Z,89.85
2022-11-28T11:15:16.071Z,89.8
2022-11-28T11:17:17.692Z,89.41
2022-11-28T11:19:19.329Z,89.42
2022-11-28T11:23:22.223Z,89.74
2022-11-28T11:25:23.969Z,90.19
2022-11-28T11:27:25.328Z,90.67
2022-11-28T11:29:26.925Z,90.47
2022-11-28T11:31:27.984Z,90.68
2022-11-28T11:33:29.818Z,90.49
2022-11-28T11:35:31.597Z,90.51
2022-11-28T11:37:33.390Z,89.89
2022-11-28T11:39:34.502Z,90.26
2022-11-28T11:41:36.328Z,90.37
2022-11-28T11:43:38.239Z,90.48
2022-11-28T11:45:40.117Z,90.35
2022-11-28T11:47:41.715Z,90.31
2022-11-28T11:49:43.423Z,90.11
2022-11-28T11:51:44.469Z,89.7
2022-11-28T11:53:45.882Z,89.73
2022-11-28T11:55:46.862Z,90.04
2022-11-28T11:57:48.592Z,89.76
2022-11-28T11:59:50.404Z,89.83
2022-11-28T12:01:51.745Z,89.69
2022-11-28T12:06:13.041Z,89.48
2022-11-28T12:07:56.027Z,89.27
2022-11-28T12:10:01.819Z,89.18
2022-11-28T12:11:59.034Z,89.77
2022-11-28T12:16:02.465Z,90.03
2022-11-28T12:18:04.353Z,89.5
2022-11-28T12:20:05.795Z,89.54
2022-11-28T12:22:07.399Z,89.83
2022-11-28T12:24:09.228Z,89.4
2022-11-28T12:26:10.469Z,89.06
2022-11-28T12:28:12.048Z,88.79
2022-11-28T12:30:13.733Z,89.07
2022-11-28T12:32:15.641Z,89.08
2022-11-28T12:34:16.853Z,88.42
2022-11-28T12:36:18.229Z,88.97
2022-11-28T12:38:20.128Z,88.95
2022-11-28T12:40:21.253Z,88.8
2022-11-28T12:42:22.589Z,88.28
2022-11-28T12:44:23.869Z,88.05
2022-11-28T12:48:26.611Z,87.66
2022-11-28T12:50:28.121Z,87.43
2022-11-28T12:52:29.282Z,87.36
2022-11-28T12:54:31.045Z,87.54
2022-11-28T12:58:34.063Z,87.65
2022-11-28T13:00:35.673Z,87.45
2022-11-28T13:02:37.047Z,87.54
2022-11-28T13:04:38.495Z,87.16
2022-11-28T13:06:39.496Z,87.48
2022-11-28T13:08:46.614Z,87.55
2022-11-28T13:10:42.444Z,88.07
2022-11-28T13:12:43.954Z,87.96
2022-11-28T13:14:46.233Z,88.05
2022-11-28T13:15:29.572Z,88.13
2022-11-28T13:17:31.469Z,88
2022-11-28T13:19:32.715Z,87.81
2022-11-28T13:21:34.476Z,88.43
2022-11-28T13:23:36.182Z,88.85
2022-11-28T13:25:37.738Z,88.85
2022-11-28T13:27:39.195Z,88.67
2022-11-28T13:29:40.412Z,88.64
2022-11-28T13:31:42.343Z,88.44
2022-11-28T13:35:44.544Z,89.2
2022-11-28T13:39:47.936Z,88.69
2022-11-28T13:42:09.968Z,88.48
2022-11-28T13:43:50.822Z,88.49
2022-11-28T13:45:52.529Z,88.5
2022-11-28T13:47:53.510Z,88.64
2022-11-28T13:49:54.825Z,88.4
2022-11-28T13:51:56.421Z,88.65
2022-11-28T13:53:57.567Z,88.8
2022-11-28T13:55:59.469Z,88.9
2022-11-28T13:58:00.418Z,89.14
2022-11-28T14:00:01.681Z,89.31
2022-11-28T14:02:03.703Z,89.41
2022-11-28T14:04:04.611Z,89.42
2022-11-28T14:08:07.825Z,89.26
2022-11-28T14:10:09.091Z,89.3
2022-11-28T14:12:10.624Z,89.39
2022-11-28T14:14:13.156Z,89.45
2022-11-28T14:18:39.500Z,89.83
2022-11-28T14:20:17.329Z,89.61
2022-11-28T14:22:18.379Z,89.55
2022-11-28T14:24:19.539Z,89.55
2022-11-28T14:26:20.593Z,89.68
2022-11-28T14:28:21.599Z,89.73
2022-11-28T14:30:22.620Z,89.64
2022-11-28T14:34:25.535Z,89.76
2022-11-28T14:36:26.648Z,89.93
2022-11-28T14:38:27.635Z,90.02
2022-11-28T14:40:28.768Z,90.04
2022-11-28T14:42:58.668Z,89.96
2022-11-28T14:44:30.985Z,89.75
2022-11-28T14:46:32.045Z,89.78
2022-11-28T14:48:33.900Z,89.68
2022-11-28T14:50:34.842Z,89.66
2022-11-28T14:52:39.342Z,89.69
2022-11-28T14:54:37.763Z,89.82
2022-11-28T14:56:39.258Z,89.91
2022-11-28T14:58:40.836Z,89.93
2022-11-28T15:00:42.099Z,90
2022-11-28T15:02:43.828Z,90.03
2022-11-28T15:04:45.157Z,90.53
2022-11-28T15:06:46.901Z,91.29
2022-11-28T15:08:48.065Z,91.52
2022-11-28T15:10:49.538Z,91.25
2022-11-28T15:12:51.139Z,91.04
2022-11-28T15:16:53.556Z,91.16
2022-11-28T15:18:54.698Z,91.26
2022-11-28T15:20:56.605Z,91.56
2022-11-28T15:22:57.855Z,91.98
2022-11-28T15:24:59.615Z,91.87
2022-11-28T15:27:01.431Z,91.91
2022-11-28T15:29:03.091Z,92.08
2022-11-28T15:31:04.198Z,92.09
2022-11-28T15:33:05.534Z,92.2
2022-11-28T15:35:12.415Z,92.31
2022-11-28T15:37:09.390Z,92.38
2022-11-28T15:39:11.124Z,92.5
2022-11-28T15:41:13.088Z,92.49
2022-11-28T15:43:14.701Z,92.63
2022-11-28T15:45:16.366Z,92.68
2022-11-28T15:47:17.522Z,92.68
2022-11-28T15:49:18.741Z,92.74
2022-11-28T15:51:19.998Z,92.54
2022-11-28T15:53:21.645Z,92.45
2022-11-28T15:55:22.946Z,92.43
2022-11-28T15:57:24.060Z,92.52
2022-11-28T15:59:25.666Z,92.67
2022-11-28T16:01:27.065Z,92.61
2022-11-28T16:03:28.215Z,92.61
2022-11-28T16:05:29.199Z,92.85
2022-11-28T16:07:30.677Z,92.81
2022-11-28T16:09:32.032Z,92.85
2022-11-28T16:11:33.770Z,92.99
2022-11-28T16:13:35.296Z,93.05
2022-11-28T16:15:37.100Z,92.97
2022-11-28T16:17:38.225Z,93.01
2022-11-28T16:19:40.067Z,93.11
2022-11-28T16:21:41.811Z,93.17
2022-11-28T16:23:43.046Z,93.15
2022-11-28T16:25:44.420Z,93.16
2022-11-28T16:27:45.669Z,93.28
2022-11-28T16:31:48.356Z,93.69
2022-11-28T16:33:49.520Z,93.81
2022-11-28T16:35:50.741Z,94.11
2022-11-28T16:37:51.805Z,94.12
2022-11-28T16:41:54.551Z,94.18
2022-11-28T16:43:56.456Z,94.26
2022-11-28T16:45:57.964Z,94.32
2022-11-28T16:47:59.178Z,94.35
2022-11-28T16:50:00.367Z,94.56
2022-11-28T16:52:02.139Z,94.65
2022-11-28T16:54:04.044Z,94.79
2022-11-28T16:56:06.072Z,94.87
2022-11-28T16:58:07.520Z,94.87
2022-11-28T17:00:08.795Z,95.01
2022-11-28T17:02:09.999Z,95.1
2022-11-28T17:04:11.701Z,95.11
2022-11-28T17:06:12.950Z,95.18
2022-11-28T17:08:14.753Z,95.28
2022-11-28T17:10:15.753Z,95.32
2022-11-28T17:12:16.906Z,95.35
2022-11-28T17:14:18.667Z,95.36
2022-11-28T17:16:20.515Z,95.37
2022-11-28T17:18:21.503Z,95.5
2022-11-28T17:20:23.173Z,95.51
2022-11-28T17:24:25.953Z,95.58
2022-11-28T17:26:27.264Z,95.6
2022-11-28T17:28:29.163Z,95.67
2022-11-28T17:30:30.075Z,95.69
2022-11-28T17:32:31.205Z,95.71
2022-11-28T17:34:32.916Z,95.73
2022-11-28T17:36:33.982Z,95.69
2022-11-28T17:40:36.421Z,95.68
2022-11-28T17:42:38.133Z,95.88
2022-11-28T17:44:39.284Z,96.02
2022-11-28T17:46:40.616Z,96.17
2022-11-28T17:48:42.026Z,96.22
2022-11-28T17:50:43.515Z,96.35
2022-11-28T17:52:45.231Z,96.42
2022-11-28T17:54:47.199Z,96.38
2022-11-28T17:56:48.413Z,96.37
2022-11-28T17:58:50.400Z,96.39
2022-11-28T18:00:53.967Z,96.45
2022-11-28T18:02:52.673Z,96.53
2022-11-28T18:04:53.798Z,96.63
2022-11-28T18:06:55.134Z,96.66
2022-11-28T18:08:56.155Z,96.67
2022-11-28T18:10:57.700Z,96.68
2022-11-28T18:12:59.657Z,96.69
2022-11-28T18:15:00.769Z,96.67
2022-11-28T18:17:02.487Z,96.68
2022-11-28T18:19:03.771Z,96.67
2022-11-28T18:23:07.137Z,96.7
2022-11-28T18:25:08.501Z,96.75
2022-11-28T18:27:09.772Z,96.77
2022-11-28T18:29:11.390Z,96.81
2022-11-28T18:31:12.815Z,96.82
2022-11-28T18:33:14.249Z,96.9
2022-11-28T18:35:15.574Z,96.96
2022-11-28T18:37:16.848Z,97
2022-11-28T18:39:18.334Z,97.09
2022-11-28T18:41:28.203Z,97.12
2022-11-28T18:43:22.162Z,97.13
2022-11-28T18:45:23.983Z,97.17
2022-11-28T18:47:25.490Z,97.16
2022-11-28T18:49:26.708Z,97.14
2022-11-28T18:51:28.515Z,97.11
2022-11-28T18:55:31.173Z,97.08
2022-11-28T18:57:32.364Z,97.04
2022-11-28T18:59:34.033Z,97.04
2022-11-28T19:01:35.269Z,97.03
2022-11-28T19:05:39.417Z,96.99
2022-11-28T19:07:40.381Z,96.99
2022-11-28T19:09:50.253Z,97.07
2022-11-28T19:11:43.895Z,97.09
2022-11-28T19:13:45.828Z,97.09
2022-11-28T19:15:47.729Z,97.12
2022-11-28T19:17:49.355Z,97.15
2022-11-28T19:19:51.057Z,97.09
2022-11-28T19:21:52.216Z,97.14
2022-11-28T19:23:53.312Z,97.15
2022-11-28T19:25:54.597Z,97.27
2022-11-28T19:27:55.668Z,97.32
2022-11-28T19:29:56.962Z,97.41
2022-11-28T19:31:58.694Z,97.41
2022-11-28T19:34:01.442Z,97.42
2022-11-28T19:36:01.631Z,97.44
2022-11-28T19:38:03.273Z,97.41
2022-11-28T19:40:04.583Z,97.41
2022-11-28T19:42:05.720Z,97.5
2022-11-28T19:44:07.478Z,97.52
2022-11-28T19:48:10.836Z,97.68
2022-11-28T19:50:11.898Z,97.72
2022-11-28T19:52:13.867Z,97.68
2022-11-28T19:54:15.292Z,97.63
2022-11-28T19:56:17.214Z,97.61
2022-11-28T19:58:19.078Z,97.15
2022-11-28T20:00:20.496Z,96.49
2022-11-28T20:03:06.242Z,96.52
2022-11-28T20:05:07.401Z,96.4
2022-11-28T20:07:09.278Z,96.21
2022-11-28T20:09:10.836Z,96.11
2022-11-28T20:11:12.414Z,96.08
2022-11-28T20:15:18.289Z,95.83
2022-11-28T20:17:17.536Z,95.78
2022-11-28T20:19:18.600Z,95.8
2022-11-28T20:21:29.571Z,95.68
2022-11-28T20:25:23.784Z,95.98
2022-11-28T20:27:25.269Z,95.93
2022-11-28T20:29:26.849Z,95.9
2022-11-28T20:31:28.718Z,95.92
2022-11-28T20:33:30.350Z,96.05
2022-11-28T20:35:31.375Z,96.21
2022-11-28T20:37:32.525Z,96.39
2022-11-28T20:39:34.120Z,96.61
2022-11-28T20:41:35.439Z,96.18
2022-11-28T20:43:36.455Z,95.87
2022-11-28T20:45:37.680Z,95.97
2022-11-28T20:47:39.611Z,96.18
2022-11-28T20:49:41.105Z,96.13
2022-11-28T20:51:42.879Z,96.15
2022-11-28T20:53:44.761Z,96.13
2022-11-28T20:55:46.246Z,96.14
2022-11-28T20:57:48.175Z,96.26
2022-11-28T20:59:49.875Z,96.42
2022-11-28T21:01:51.481Z,96.51
2022-11-28T21:03:52.547Z,96.71
2022-11-28T21:07:55.557Z,97.03
2022-11-28T21:09:57.445Z,97.03
2022-11-28T21:11:59.649Z,97.09
2022-11-28T21:14:00.907Z,97.19
2022-11-28T21:16:02.804Z,97.38
2022-11-28T21:18:03.781Z,97.47
2022-11-28T21:20:05.058Z,97.54
2022-11-28T21:22:06.718Z,97.53
2022-11-28T21:24:08.558Z,97.5
2022-11-28T21:26:10.416Z,97.47
2022-11-28T21:28:11.534Z,97.42
2022-11-28T21:30:13.343Z,97.4
2022-11-28T21:32:15.214Z,97.59
2022-11-28T21:34:17.192Z,97.68
2022-11-28T21:36:19.295Z,97.77
2022-11-28T21:38:20.803Z,97.79
2022-11-28T21:40:22.685Z,97.86
2022-11-28T21:42:24.598Z,97.92
2022-11-28T21:44:25.579Z,97.73
2022-11-28T21:46:27.347Z,97.76
2022-11-28T21:48:28.876Z,97.83
2022-11-28T21:50:29.972Z,97.93
2022-11-28T21:52:31.590Z,98.01
2022-11-28T21:54:33.291Z,98.05
2022-11-28T21:56:34.804Z,98.1
2022-11-28T21:58:35.760Z,98.09
2022-11-28T22:00:53.017Z,98.11
2022-11-28T22:02:38.895Z,98.1
2022-11-28T22:04:40.350Z,98.02
2022-11-28T22:06:41.585Z,98.02
2022-11-28T22:08:43.217Z,98.09
2022-11-28T22:10:45.176Z,98.14
2022-11-28T22:12:46.893Z,98.14
2022-11-28T22:14:49.148Z,98.16
2022-11-28T22:16:50.295Z,98.26
2022-11-28T22:18:51.598Z,98.26
2022-11-28T22:20:53.249Z,98.26
2022-11-28T22:22:54.313Z,98.26
2022-11-28T22:24:55.620Z,98.26
2022-11-28T22:26:56.660Z,98.27
2022-11-28T22:28:58.044Z,98.28
2022-11-28T22:30:59.593Z,98.23
2022-11-28T22:33:00.958Z,98.16
2022-11-28T22:35:02.334Z,98.15
2022-11-28T22:39:04.972Z,98.12
2022-11-28T22:41:06.906Z,98.09
2022-11-28T22:43:08.691Z,98.07
2022-11-28T22:45:09.879Z,98.09
2022-11-28T22:49:12.830Z,98.12
2022-11-28T22:51:14.724Z,98.1
2022-11-28T22:53:16.567Z,98.05
2022-11-28T22:55:17.647Z,97.56
2022-11-28T22:57:19.265Z,97.06
2022-11-28T22:59:20.511Z,96.64
2022-11-28T23:01:21.888Z,96.37
2022-11-28T23:03:23.315Z,95.84
2022-11-28T23:05:24.246Z,95.8
2022-11-28T23:07:26.227Z,95.98
2022-11-28T23:09:27.644Z,95.7
2022-11-28T23:11:29.358Z,95.67
2022-11-28T23:13:31.183Z,95.81
2022-11-28T23:15:33.154Z,96
2022-11-28T23:17:34.347Z,96.09
2022-11-28T23:19:35.738Z,96.13
2022-11-28T23:21:37.674Z,96.21
2022-11-28T23:23:39.090Z,96.29
2022-11-28T23:25:40.786Z,96.28
2022-11-28T23:27:42.334Z,96.06
2022-11-28T23:31:45.473Z,96
2022-11-28T23:33:47.185Z,95.97
2022-11-28T23:35:48.535Z,95.79
2022-11-28T23:37:49.942Z,95.89
2022-11-28T23:39:51.470Z,95.88
2022-11-28T23:41:52.885Z,95.9
2022-11-28T23:43:54.300Z,95.9
2022-11-28T23:45:55.370Z,95.97
2022-11-28T23:47:56.388Z,96.32
2022-11-28T23:49:58.223Z,96.6
2022-11-28T23:51:59.830Z,96.66
2022-11-28T23:54:00.926Z,96.68
2022-11-28T23:56:02.125Z,96.95
2022-11-28T23:58:03.554Z,97.14
